Terminal Aerodrome Forecast
Issued by NWS Sterling, VA

Home | Current Version | Previous Version | Text Only | Print | Product List | Glossary On
Versions: 1 2 3 4 5 6 7 8 9 10 11 12 13 14 15 16 17 18 19 20 21 22
689
FTUS41 KLWX 300539
TAFCHO
TAF
KCHO 300539Z 3006/3106 00000KT P6SM BKN080
     FM301300 14004KT P6SM VCTS BKN025CB
     FM301800 16006KT P6SM -SHRA VCTS BKN050CB
     FM310000 VRB03KT P6SM -SHRA VCTS OVC040CB
     FM310300 00000KT P6SM BKN040=

USA.gov is the U.S. government's official web portal to all federal, state and local government web resources and services.